sensor_id;sensor_type;location;lat;lon;timestamp;P1;durP1;ratioP1;P2;durP2;ratioP2
18738;SDS011;9498;51.862;19.460;2022-12-07T00:01:25;41.33;;;16.93;;
18738;SDS011;9498;51.862;19.460;2022-12-07T00:03:54;46.13;;;17.63;;
18738;SDS011;9498;51.862;19.460;2022-12-07T00:06:25;40.63;;;17.13;;
18738;SDS011;9498;51.862;19.460;2022-12-07T00:08:53;39.87;;;16.70;;
18738;SDS011;9498;51.862;19.460;2022-12-07T00:11:20;40.40;;;16.53;;
18738;SDS011;9498;51.862;19.460;2022-12-07T00:13:51;41.70;;;16.20;;
18738;SDS011;9498;51.862;19.460;2022-12-07T00:16:19;43.33;;;17.43;;
18738;SDS011;9498;51.862;19.460;2022-12-07T00:18:46;48.03;;;20.92;;
18738;SDS011;9498;51.862;19.460;2022-12-07T00:21:16;44.23;;;17.43;;
18738;SDS011;9498;51.862;19.460;2022-12-07T00:23:43;39.67;;;16.67;;
18738;SDS011;9498;51.862;19.460;2022-12-07T00:26:12;39.83;;;16.77;;
18738;SDS011;9498;51.862;19.460;2022-12-07T00:28:39;43.40;;;17.87;;
18738;SDS011;9498;51.862;19.460;2022-12-07T00:31:07;41.03;;;16.93;;
18738;SDS011;9498;51.862;19.460;2022-12-07T00:33:35;36.30;;;15.60;;
18738;SDS011;9498;51.862;19.460;2022-12-07T00:36:03;41.10;;;16.37;;
18738;SDS011;9498;51.862;19.460;2022-12-07T00:38:33;42.87;;;17.00;;
18738;SDS011;9498;51.862;19.460;2022-12-07T00:41:01;42.77;;;16.43;;
18738;SDS011;9498;51.862;19.460;2022-12-07T00:43:29;41.30;;;17.50;;
18738;SDS011;9498;51.862;19.460;2022-12-07T00:45:56;46.50;;;19.02;;
18738;SDS011;9498;51.862;19.460;2022-12-07T00:48:24;47.20;;;17.93;;
18738;SDS011;9498;51.862;19.460;2022-12-07T00:50:51;47.73;;;18.10;;
18738;SDS011;9498;51.862;19.460;2022-12-07T00:53:18;41.47;;;16.87;;
18738;SDS011;9498;51.862;19.460;2022-12-07T00:55:47;48.20;;;18.80;;
18738;SDS011;9498;51.862;19.460;2022-12-07T00:58:14;46.47;;;17.33;;
18738;SDS011;9498;51.862;19.460;2022-12-07T01:00:42;49.90;;;17.57;;
18738;SDS011;9498;51.862;19.460;2022-12-07T01:03:10;44.73;;;16.47;;
18738;SDS011;9498;51.862;19.460;2022-12-07T01:05:38;43.90;;;17.17;;
18738;SDS011;9498;51.862;19.460;2022-12-07T01:08:05;41.70;;;16.10;;
18738;SDS011;9498;51.862;19.460;2022-12-07T01:10:33;43.93;;;16.30;;
18738;SDS011;9498;51.862;19.460;2022-12-07T01:13:01;42.13;;;16.97;;
18738;SDS011;9498;51.862;19.460;2022-12-07T01:15:29;52.80;;;19.77;;
18738;SDS011;9498;51.862;19.460;2022-12-07T01:17:56;50.70;;;18.53;;
18738;SDS011;9498;51.862;19.460;2022-12-07T01:20:23;45.57;;;17.57;;
18738;SDS011;9498;51.862;19.460;2022-12-07T01:22:50;46.13;;;16.57;;
18738;SDS011;9498;51.862;19.460;2022-12-07T01:25:17;39.80;;;16.23;;
18738;SDS011;9498;51.862;19.460;2022-12-07T01:27:45;46.73;;;17.53;;
18738;SDS011;9498;51.862;19.460;2022-12-07T01:30:14;44.07;;;17.07;;
18738;SDS011;9498;51.862;19.460;2022-12-07T01:32:41;43.63;;;16.43;;
18738;SDS011;9498;51.862;19.460;2022-12-07T01:35:08;60.90;;;17.80;;
18738;SDS011;9498;51.862;19.460;2022-12-07T01:37:36;41.13;;;16.57;;
18738;SDS011;9498;51.862;19.460;2022-12-07T01:40:03;43.93;;;17.27;;
18738;SDS011;9498;51.862;19.460;2022-12-07T01:42:31;53.15;;;19.45;;
18738;SDS011;9498;51.862;19.460;2022-12-07T01:48:05;46.00;;;17.23;;
18738;SDS011;9498;51.862;19.460;2022-12-07T01:50:34;38.07;;;15.03;;
18738;SDS011;9498;51.862;19.460;2022-12-07T01:53:02;46.33;;;16.30;;
18738;SDS011;9498;51.862;19.460;2022-12-07T01:55:30;47.00;;;16.40;;
18738;SDS011;9498;51.862;19.460;2022-12-07T01:57:57;43.07;;;16.73;;
18738;SDS011;9498;51.862;19.460;2022-12-07T02:00:25;45.20;;;17.30;;
18738;SDS011;9498;51.862;19.460;2022-12-07T02:02:53;43.87;;;16.67;;
18738;SDS011;9498;51.862;19.460;2022-12-07T02:05:22;48.13;;;17.40;;
18738;SDS011;9498;51.862;19.460;2022-12-07T02:07:49;42.53;;;15.47;;
18738;SDS011;9498;51.862;19.460;2022-12-07T02:10:18;38.10;;;15.47;;
18738;SDS011;9498;51.862;19.460;2022-12-07T02:12:46;50.22;;;21.27;;
18738;SDS011;9498;51.862;19.460;2022-12-07T02:15:14;44.27;;;17.63;;
18738;SDS011;9498;51.862;19.460;2022-12-07T02:17:42;38.47;;;16.20;;
18738;SDS011;9498;51.862;19.460;2022-12-07T02:20:18;39.03;;;14.87;;
18738;SDS011;9498;51.862;19.460;2022-12-07T02:23:00;42.40;;;16.53;;
18738;SDS011;9498;51.862;19.460;2022-12-07T02:25:33;42.07;;;16.83;;
18738;SDS011;9498;51.862;19.460;2022-12-07T02:28:05;39.50;;;16.80;;
18738;SDS011;9498;51.862;19.460;2022-12-07T02:30:35;42.77;;;15.80;;
18738;SDS011;9498;51.862;19.460;2022-12-07T02:33:08;38.47;;;14.93;;
18738;SDS011;9498;51.862;19.460;2022-12-07T02:35:39;36.63;;;15.23;;
18738;SDS011;9498;51.862;19.460;2022-12-07T02:38:08;35.23;;;15.10;;
18738;SDS011;9498;51.862;19.460;2022-12-07T02:40:39;34.78;;;15.00;;
18738;SDS011;9498;51.862;19.460;2022-12-07T02:43:09;34.93;;;15.73;;
18738;SDS011;9498;51.862;19.460;2022-12-07T02:45:39;35.97;;;14.07;;
18738;SDS011;9498;51.862;19.460;2022-12-07T02:48:07;32.83;;;13.87;;
18738;SDS011;9498;51.862;19.460;2022-12-07T02:50:35;27.30;;;13.03;;
18738;SDS011;9498;51.862;19.460;2022-12-07T02:53:03;26.00;;;12.27;;
18738;SDS011;9498;51.862;19.460;2022-12-07T02:55:33;23.83;;;11.13;;
18738;SDS011;9498;51.862;19.460;2022-12-07T02:58:06;23.03;;;10.90;;
18738;SDS011;9498;51.862;19.460;2022-12-07T03:00:41;20.60;;;10.90;;
18738;SDS011;9498;51.862;19.460;2022-12-07T03:03:11;23.10;;;11.10;;
18738;SDS011;9498;51.862;19.460;2022-12-07T03:05:48;24.30;;;11.03;;
18738;SDS011;9498;51.862;19.460;2022-12-07T03:08:19;21.63;;;10.97;;
18738;SDS011;9498;51.862;19.460;2022-12-07T03:10:50;26.35;;;13.00;;
18738;SDS011;9498;51.862;19.460;2022-12-07T03:13:19;24.03;;;11.47;;
18738;SDS011;9498;51.862;19.460;2022-12-07T03:15:50;22.03;;;10.77;;
18738;SDS011;9498;51.862;19.460;2022-12-07T03:18:21;23.37;;;10.37;;
18738;SDS011;9498;51.862;19.460;2022-12-07T03:20:49;23.33;;;10.93;;
18738;SDS011;9498;51.862;19.460;2022-12-07T03:23:18;22.80;;;10.43;;
18738;SDS011;9498;51.862;19.460;2022-12-07T03:25:46;22.70;;;10.93;;
18738;SDS011;9498;51.862;19.460;2022-12-07T03:28:14;34.90;;;12.47;;
18738;SDS011;9498;51.862;19.460;2022-12-07T03:30:44;23.40;;;11.97;;
18738;SDS011;9498;51.862;19.460;2022-12-07T03:33:15;26.50;;;11.87;;
18738;SDS011;9498;51.862;19.460;2022-12-07T03:35:47;24.97;;;11.67;;
18738;SDS011;9498;51.862;19.460;2022-12-07T03:38:17;25.60;;;12.13;;
18738;SDS011;9498;51.862;19.460;2022-12-07T03:40:46;28.00;;;13.65;;
18738;SDS011;9498;51.862;19.460;2022-12-07T03:43:16;21.40;;;11.30;;
18738;SDS011;9498;51.862;19.460;2022-12-07T03:45:44;22.73;;;10.90;;
18738;SDS011;9498;51.862;19.460;2022-12-07T03:48:15;21.17;;;10.30;;
18738;SDS011;9498;51.862;19.460;2022-12-07T03:50:48;25.20;;;11.73;;
18738;SDS011;9498;51.862;19.460;2022-12-07T03:53:18;22.47;;;11.10;;
18738;SDS011;9498;51.862;19.460;2022-12-07T03:55:46;24.40;;;11.77;;
18738;SDS011;9498;51.862;19.460;2022-12-07T03:58:15;23.63;;;11.23;;
18738;SDS011;9498;51.862;19.460;2022-12-07T04:00:43;22.20;;;11.37;;
18738;SDS011;9498;51.862;19.460;2022-12-07T04:03:10;22.43;;;10.23;;
18738;SDS011;9498;51.862;19.460;2022-12-07T04:05:39;21.83;;;10.70;;
18738;SDS011;9498;51.862;19.460;2022-12-07T04:08:07;35.47;;;10.40;;
18738;SDS011;9498;51.862;19.460;2022-12-07T04:10:34;24.23;;;12.35;;
18738;SDS011;9498;51.862;19.460;2022-12-07T04:13:01;18.63;;;9.70;;
18738;SDS011;9498;51.862;19.460;2022-12-07T04:15:29;19.80;;;10.37;;
18738;SDS011;9498;51.862;19.460;2022-12-07T04:17:56;19.57;;;9.47;;
18738;SDS011;9498;51.862;19.460;2022-12-07T04:20:23;18.20;;;8.30;;
18738;SDS011;9498;51.862;19.460;2022-12-07T04:22:52;19.63;;;8.70;;
18738;SDS011;9498;51.862;19.460;2022-12-07T04:25:19;18.80;;;9.13;;
18738;SDS011;9498;51.862;19.460;2022-12-07T04:27:46;19.30;;;9.33;;
18738;SDS011;9498;51.862;19.460;2022-12-07T04:30:13;18.17;;;9.00;;
18738;SDS011;9498;51.862;19.460;2022-12-07T04:32:41;19.73;;;9.53;;
18738;SDS011;9498;51.862;19.460;2022-12-07T04:35:08;20.90;;;8.63;;
18738;SDS011;9498;51.862;19.460;2022-12-07T04:37:35;19.45;;;9.63;;
18738;SDS011;9498;51.862;19.460;2022-12-07T04:40:06;17.20;;;8.70;;
18738;SDS011;9498;51.862;19.460;2022-12-07T04:42:36;15.63;;;8.33;;
18738;SDS011;9498;51.862;19.460;2022-12-07T04:45:03;17.70;;;8.60;;
18738;SDS011;9498;51.862;19.460;2022-12-07T04:47:30;20.40;;;9.13;;
18738;SDS011;9498;51.862;19.460;2022-12-07T04:49:58;20.03;;;9.30;;
18738;SDS011;9498;51.862;19.460;2022-12-07T04:52:25;20.10;;;8.90;;
18738;SDS011;9498;51.862;19.460;2022-12-07T04:54:52;17.10;;;8.10;;
18738;SDS011;9498;51.862;19.460;2022-12-07T04:57:21;16.43;;;9.00;;
18738;SDS011;9498;51.862;19.460;2022-12-07T04:59:48;16.63;;;8.57;;
18738;SDS011;9498;51.862;19.460;2022-12-07T05:02:15;15.67;;;8.10;;
18738;SDS011;9498;51.862;19.460;2022-12-07T05:04:42;17.42;;;9.13;;
18738;SDS011;9498;51.862;19.460;2022-12-07T05:07:09;16.13;;;8.40;;
18738;SDS011;9498;51.862;19.460;2022-12-07T05:09:37;17.07;;;9.13;;
18738;SDS011;9498;51.862;19.460;2022-12-07T05:12:04;19.20;;;9.23;;
18738;SDS011;9498;51.862;19.460;2022-12-07T05:14:32;17.23;;;8.80;;
18738;SDS011;9498;51.862;19.460;2022-12-07T05:17:00;20.03;;;9.67;;
18738;SDS011;9498;51.862;19.460;2022-12-07T05:19:27;19.27;;;8.93;;
18738;SDS011;9498;51.862;19.460;2022-12-07T05:21:54;19.43;;;9.67;;
18738;SDS011;9498;51.862;19.460;2022-12-07T05:24:22;21.43;;;10.20;;
18738;SDS011;9498;51.862;19.460;2022-12-07T05:26:49;19.37;;;9.20;;
18738;SDS011;9498;51.862;19.460;2022-12-07T05:29:16;18.83;;;9.43;;
18738;SDS011;9498;51.862;19.460;2022-12-07T05:31:45;18.47;;;9.33;;
18738;SDS011;9498;51.862;19.460;2022-12-07T05:34:12;16.30;;;8.70;;
18738;SDS011;9498;51.862;19.460;2022-12-07T05:36:39;21.60;;;9.57;;
18738;SDS011;9498;51.862;19.460;2022-12-07T05:39:06;21.97;;;9.27;;
18738;SDS011;9498;51.862;19.460;2022-12-07T05:41:34;23.93;;;10.30;;
18738;SDS011;9498;51.862;19.460;2022-12-07T05:44:19;19.73;;;10.10;;
18738;SDS011;9498;51.862;19.460;2022-12-07T05:46:47;21.33;;;10.37;;
18738;SDS011;9498;51.862;19.460;2022-12-07T05:49:15;21.47;;;10.43;;
18738;SDS011;9498;51.862;19.460;2022-12-07T05:51:42;21.27;;;9.70;;
18738;SDS011;9498;51.862;19.460;2022-12-07T05:54:09;24.53;;;11.10;;
18738;SDS011;9498;51.862;19.460;2022-12-07T05:56:36;24.33;;;11.10;;
18738;SDS011;9498;51.862;19.460;2022-12-07T05:59:03;26.43;;;11.73;;
18738;SDS011;9498;51.862;19.460;2022-12-07T06:01:50;30.87;;;12.17;;
18738;SDS011;9498;51.862;19.460;2022-12-07T06:04:17;31.00;;;12.87;;
18738;SDS011;9498;51.862;19.460;2022-12-07T06:06:44;35.07;;;13.07;;
18738;SDS011;9498;51.862;19.460;2022-12-07T06:09:11;29.33;;;13.00;;
18738;SDS011;9498;51.862;19.460;2022-12-07T06:11:39;33.07;;;13.00;;
18738;SDS011;9498;51.862;19.460;2022-12-07T06:14:24;33.73;;;14.13;;
18738;SDS011;9498;51.862;19.460;2022-12-07T06:16:52;30.27;;;12.43;;
18738;SDS011;9498;51.862;19.460;2022-12-07T06:19:20;41.23;;;13.83;;
18738;SDS011;9498;51.862;19.460;2022-12-07T06:21:47;36.13;;;14.77;;
18738;SDS011;9498;51.862;19.460;2022-12-07T06:24:14;37.80;;;15.27;;
18738;SDS011;9498;51.862;19.460;2022-12-07T06:26:42;41.07;;;15.10;;
18738;SDS011;9498;51.862;19.460;2022-12-07T06:29:10;48.43;;;17.87;;
18738;SDS011;9498;51.862;19.460;2022-12-07T06:31:37;42.03;;;15.73;;
18738;SDS011;9498;51.862;19.460;2022-12-07T06:34:06;47.93;;;16.53;;
18738;SDS011;9498;51.862;19.460;2022-12-07T06:36:34;38.43;;;15.57;;
18738;SDS011;9498;51.862;19.460;2022-12-07T06:39:01;40.03;;;15.33;;
18738;SDS011;9498;51.862;19.460;2022-12-07T06:41:28;36.20;;;15.07;;
18738;SDS011;9498;51.862;19.460;2022-12-07T06:43:56;42.03;;;15.50;;
18738;SDS011;9498;51.862;19.460;2022-12-07T06:46:23;43.93;;;15.73;;
18738;SDS011;9498;51.862;19.460;2022-12-07T06:48:51;37.40;;;13.40;;
18738;SDS011;9498;51.862;19.460;2022-12-07T06:51:19;35.73;;;13.37;;
18738;SDS011;9498;51.862;19.460;2022-12-07T06:53:46;36.90;;;13.90;;
18738;SDS011;9498;51.862;19.460;2022-12-07T06:56:14;38.40;;;14.27;;
18738;SDS011;9498;51.862;19.460;2022-12-07T06:58:41;39.03;;;14.13;;
18738;SDS011;9498;51.862;19.460;2022-12-07T07:01:09;41.10;;;15.23;;
18738;SDS011;9498;51.862;19.460;2022-12-07T07:03:36;34.43;;;14.37;;
18738;SDS011;9498;51.862;19.460;2022-12-07T07:06:04;34.57;;;14.07;;
18738;SDS011;9498;51.862;19.460;2022-12-07T07:08:33;38.30;;;13.23;;
18738;SDS011;9498;51.862;19.460;2022-12-07T07:11:01;35.63;;;14.07;;
18738;SDS011;9498;51.862;19.460;2022-12-07T07:13:28;34.03;;;13.40;;
18738;SDS011;9498;51.862;19.460;2022-12-07T07:15:55;34.57;;;13.57;;
18738;SDS011;9498;51.862;19.460;2022-12-07T07:18:23;43.37;;;14.27;;
18738;SDS011;9498;51.862;19.460;2022-12-07T07:20:50;34.43;;;13.07;;
18738;SDS011;9498;51.862;19.460;2022-12-07T07:23:17;34.87;;;14.07;;
18738;SDS011;9498;51.862;19.460;2022-12-07T07:25:46;32.63;;;13.90;;
18738;SDS011;9498;51.862;19.460;2022-12-07T07:28:14;38.50;;;14.83;;
18738;SDS011;9498;51.862;19.460;2022-12-07T07:30:41;40.30;;;15.30;;
18738;SDS011;9498;51.862;19.460;2022-12-07T07:33:09;43.07;;;16.77;;
18738;SDS011;9498;51.862;19.460;2022-12-07T07:35:36;40.73;;;15.80;;
18738;SDS011;9498;51.862;19.460;2022-12-07T07:38:04;46.60;;;16.53;;
18738;SDS011;9498;51.862;19.460;2022-12-07T07:40:31;38.00;;;15.03;;
18738;SDS011;9498;51.862;19.460;2022-12-07T07:42:59;39.00;;;14.90;;
18738;SDS011;9498;51.862;19.460;2022-12-07T07:45:26;41.30;;;14.27;;
18738;SDS011;9498;51.862;19.460;2022-12-07T07:47:54;36.13;;;13.60;;
18738;SDS011;9498;51.862;19.460;2022-12-07T07:50:21;33.17;;;13.83;;
18738;SDS011;9498;51.862;19.460;2022-12-07T07:52:48;37.80;;;13.57;;
18738;SDS011;9498;51.862;19.460;2022-12-07T07:55:16;36.07;;;13.57;;
18738;SDS011;9498;51.862;19.460;2022-12-07T07:57:43;35.17;;;13.57;;
18738;SDS011;9498;51.862;19.460;2022-12-07T08:00:13;35.90;;;13.80;;
18738;SDS011;9498;51.862;19.460;2022-12-07T08:02:40;31.00;;;13.10;;
18738;SDS011;9498;51.862;19.460;2022-12-07T08:05:09;29.50;;;12.17;;
18738;SDS011;9498;51.862;19.460;2022-12-07T08:07:37;26.23;;;11.83;;
18738;SDS011;9498;51.862;19.460;2022-12-07T08:10:04;30.27;;;12.07;;
18738;SDS011;9498;51.862;19.460;2022-12-07T08:12:35;31.73;;;12.07;;
18738;SDS011;9498;51.862;19.460;2022-12-07T08:15:24;31.17;;;11.83;;
18738;SDS011;9498;51.862;19.460;2022-12-07T08:17:51;31.83;;;12.97;;
18738;SDS011;9498;51.862;19.460;2022-12-07T08:20:18;31.70;;;13.00;;
18738;SDS011;9498;51.862;19.460;2022-12-07T08:22:46;27.50;;;11.13;;
18738;SDS011;9498;51.862;19.460;2022-12-07T08:25:13;31.10;;;12.13;;
18738;SDS011;9498;51.862;19.460;2022-12-07T08:27:40;29.77;;;11.60;;
18738;SDS011;9498;51.862;19.460;2022-12-07T08:30:07;25.43;;;10.73;;
18738;SDS011;9498;51.862;19.460;2022-12-07T08:32:36;27.90;;;11.00;;
18738;SDS011;9498;51.862;19.460;2022-12-07T08:35:03;28.73;;;11.73;;
18738;SDS011;9498;51.862;19.460;2022-12-07T08:37:31;32.90;;;12.50;;
18738;SDS011;9498;51.862;19.460;2022-12-07T08:39:58;31.20;;;12.40;;
18738;SDS011;9498;51.862;19.460;2022-12-07T08:42:26;27.27;;;11.33;;
18738;SDS011;9498;51.862;19.460;2022-12-07T08:45:03;31.37;;;12.10;;
18738;SDS011;9498;51.862;19.460;2022-12-07T08:47:30;31.23;;;11.33;;
18738;SDS011;9498;51.862;19.460;2022-12-07T08:49:59;30.20;;;12.33;;
18738;SDS011;9498;51.862;19.460;2022-12-07T08:52:28;29.03;;;11.77;;
18738;SDS011;9498;51.862;19.460;2022-12-07T08:54:56;27.30;;;11.77;;
18738;SDS011;9498;51.862;19.460;2022-12-07T08:57:23;28.10;;;11.13;;
18738;SDS011;9498;51.862;19.460;2022-12-07T08:59:50;31.83;;;13.03;;
18738;SDS011;9498;51.862;19.460;2022-12-07T09:02:18;31.80;;;12.70;;
18738;SDS011;9498;51.862;19.460;2022-12-07T09:04:45;34.47;;;13.70;;
18738;SDS011;9498;51.862;19.460;2022-12-07T09:07:13;32.93;;;12.90;;
18738;SDS011;9498;51.862;19.460;2022-12-07T09:09:40;28.27;;;12.87;;
18738;SDS011;9498;51.862;19.460;2022-12-07T09:12:08;31.70;;;12.30;;
18738;SDS011;9498;51.862;19.460;2022-12-07T09:14:35;34.10;;;13.10;;
18738;SDS011;9498;51.862;19.460;2022-12-07T09:17:06;32.87;;;13.10;;
18738;SDS011;9498;51.862;19.460;2022-12-07T09:19:33;31.63;;;13.70;;
18738;SDS011;9498;51.862;19.460;2022-12-07T09:22:00;30.00;;;13.60;;
18738;SDS011;9498;51.862;19.460;2022-12-07T09:24:29;28.03;;;12.73;;
18738;SDS011;9498;51.862;19.460;2022-12-07T09:26:56;29.63;;;12.53;;
18738;SDS011;9498;51.862;19.460;2022-12-07T09:29:23;29.00;;;12.23;;
18738;SDS011;9498;51.862;19.460;2022-12-07T09:31:51;24.87;;;11.37;;
18738;SDS011;9498;51.862;19.460;2022-12-07T09:34:18;27.17;;;11.10;;
18738;SDS011;9498;51.862;19.460;2022-12-07T09:36:46;26.53;;;11.83;;
18738;SDS011;9498;51.862;19.460;2022-12-07T09:39:13;26.70;;;11.80;;
18738;SDS011;9498;51.862;19.460;2022-12-07T09:41:43;31.07;;;12.67;;
18738;SDS011;9498;51.862;19.460;2022-12-07T09:44:12;26.57;;;12.43;;
18738;SDS011;9498;51.862;19.460;2022-12-07T09:46:40;28.30;;;11.23;;
18738;SDS011;9498;51.862;19.460;2022-12-07T09:49:09;26.90;;;11.80;;
18738;SDS011;9498;51.862;19.460;2022-12-07T09:51:38;29.87;;;12.67;;
18738;SDS011;9498;51.862;19.460;2022-12-07T09:54:05;30.53;;;13.10;;
18738;SDS011;9498;51.862;19.460;2022-12-07T09:56:33;26.77;;;12.27;;
18738;SDS011;9498;51.862;19.460;2022-12-07T09:59:01;26.03;;;11.70;;
18738;SDS011;9498;51.862;19.460;2022-12-07T10:01:30;25.93;;;12.07;;
18738;SDS011;9498;51.862;19.460;2022-12-07T10:03:59;27.50;;;11.33;;
18738;SDS011;9498;51.862;19.460;2022-12-07T10:06:28;29.27;;;11.87;;
18738;SDS011;9498;51.862;19.460;2022-12-07T10:08:55;29.07;;;11.27;;
18738;SDS011;9498;51.862;19.460;2022-12-07T10:11:22;29.87;;;11.40;;
18738;SDS011;9498;51.862;19.460;2022-12-07T10:13:51;24.30;;;10.70;;
18738;SDS011;9498;51.862;19.460;2022-12-07T10:16:35;26.63;;;11.23;;
18738;SDS011;9498;51.862;19.460;2022-12-07T10:19:23;24.03;;;10.40;;
18738;SDS011;9498;51.862;19.460;2022-12-07T10:24:42;26.17;;;10.87;;
18738;SDS011;9498;51.862;19.460;2022-12-07T10:27:19;25.87;;;10.60;;
18738;SDS011;9498;51.862;19.460;2022-12-07T10:29:48;22.57;;;10.87;;
18738;SDS011;9498;51.862;19.460;2022-12-07T10:32:28;26.63;;;11.13;;
18738;SDS011;9498;51.862;19.460;2022-12-07T10:35:15;28.60;;;11.67;;
18738;SDS011;9498;51.862;19.460;2022-12-07T10:37:45;25.83;;;11.43;;
18738;SDS011;9498;51.862;19.460;2022-12-07T10:40:23;27.43;;;11.47;;
18738;SDS011;9498;51.862;19.460;2022-12-07T10:43:00;23.90;;;10.63;;
18738;SDS011;9498;51.862;19.460;2022-12-07T10:45:27;33.23;;;12.43;;
18738;SDS011;9498;51.862;19.460;2022-12-07T10:47:58;25.30;;;11.57;;
18738;SDS011;9498;51.862;19.460;2022-12-07T10:50:36;26.70;;;11.93;;
18738;SDS011;9498;51.862;19.460;2022-12-07T10:56:18;29.60;;;12.90;;
18738;SDS011;9498;51.862;19.460;2022-12-07T10:58:51;28.57;;;12.30;;
18738;SDS011;9498;51.862;19.460;2022-12-07T11:01:22;31.10;;;13.30;;
18738;SDS011;9498;51.862;19.460;2022-12-07T11:03:59;32.80;;;15.00;;
18738;SDS011;9498;51.862;19.460;2022-12-07T11:06:31;30.17;;;13.63;;
18738;SDS011;9498;51.862;19.460;2022-12-07T11:09:04;30.20;;;13.40;;
18738;SDS011;9498;51.862;19.460;2022-12-07T11:11:36;29.80;;;13.23;;
18738;SDS011;9498;51.862;19.460;2022-12-07T11:14:05;28.30;;;13.00;;
18738;SDS011;9498;51.862;19.460;2022-12-07T11:16:45;32.43;;;14.43;;
18738;SDS011;9498;51.862;19.460;2022-12-07T11:19:20;31.30;;;14.80;;
18738;SDS011;9498;51.862;19.460;2022-12-07T11:21:48;28.63;;;12.83;;
18738;SDS011;9498;51.862;19.460;2022-12-07T11:24:18;30.90;;;14.27;;
18738;SDS011;9498;51.862;19.460;2022-12-07T11:26:49;29.73;;;14.43;;
18738;SDS011;9498;51.862;19.460;2022-12-07T11:29:29;29.73;;;13.73;;
18738;SDS011;9498;51.862;19.460;2022-12-07T11:32:02;28.30;;;13.70;;
18738;SDS011;9498;51.862;19.460;2022-12-07T11:34:36;30.97;;;14.70;;
18738;SDS011;9498;51.862;19.460;2022-12-07T11:37:05;34.63;;;17.38;;
18738;SDS011;9498;51.862;19.460;2022-12-07T11:39:39;35.40;;;15.70;;
18738;SDS011;9498;51.862;19.460;2022-12-07T11:42:09;40.13;;;15.47;;
18738;SDS011;9498;51.862;19.460;2022-12-07T11:44:42;31.87;;;14.97;;
18738;SDS011;9498;51.862;19.460;2022-12-07T11:47:13;34.03;;;15.37;;
18738;SDS011;9498;51.862;19.460;2022-12-07T11:49:47;33.77;;;14.57;;
18738;SDS011;9498;51.862;19.460;2022-12-07T11:52:19;32.23;;;14.73;;
18738;SDS011;9498;51.862;19.460;2022-12-07T11:54:47;33.97;;;14.13;;
18738;SDS011;9498;51.862;19.460;2022-12-07T11:57:17;33.20;;;15.70;;
18738;SDS011;9498;51.862;19.460;2022-12-07T11:59:47;30.77;;;14.47;;
18738;SDS011;9498;51.862;19.460;2022-12-07T12:02:18;36.00;;;16.65;;
18738;SDS011;9498;51.862;19.460;2022-12-07T12:04:51;38.80;;;16.23;;
18738;SDS011;9498;51.862;19.460;2022-12-07T12:07:21;35.07;;;15.17;;
18738;SDS011;9498;51.862;19.460;2022-12-07T12:09:49;34.33;;;14.63;;
18738;SDS011;9498;51.862;19.460;2022-12-07T12:12:26;28.93;;;13.77;;
18738;SDS011;9498;51.862;19.460;2022-12-07T12:15:01;32.57;;;13.77;;
18738;SDS011;9498;51.862;19.460;2022-12-07T12:17:39;29.90;;;14.13;;
18738;SDS011;9498;51.862;19.460;2022-12-07T12:20:15;30.00;;;13.93;;
18738;SDS011;9498;51.862;19.460;2022-12-07T12:22:44;28.67;;;13.83;;
18738;SDS011;9498;51.862;19.460;2022-12-07T12:25:15;29.93;;;13.67;;
18738;SDS011;9498;51.862;19.460;2022-12-07T12:27:46;32.37;;;14.00;;
18738;SDS011;9498;51.862;19.460;2022-12-07T12:30:24;37.90;;;16.80;;
18738;SDS011;9498;51.862;19.460;2022-12-07T12:32:51;29.30;;;13.67;;
18738;SDS011;9498;51.862;19.460;2022-12-07T12:35:26;27.07;;;12.97;;
18738;SDS011;9498;51.862;19.460;2022-12-07T12:37:55;29.53;;;12.47;;
18738;SDS011;9498;51.862;19.460;2022-12-07T12:40:43;27.70;;;11.93;;
18738;SDS011;9498;51.862;19.460;2022-12-07T12:49:32;22.47;;;10.20;;
18738;SDS011;9498;51.862;19.460;2022-12-07T12:52:01;20.57;;;9.60;;
18738;SDS011;9498;51.862;19.460;2022-12-07T12:54:57;28.13;;;11.43;;
18738;SDS011;9498;51.862;19.460;2022-12-07T12:57:26;25.13;;;10.70;;
18738;SDS011;9498;51.862;19.460;2022-12-07T12:59:56;26.73;;;13.35;;
18738;SDS011;9498;51.862;19.460;2022-12-07T13:02:24;27.50;;;12.17;;
18738;SDS011;9498;51.862;19.460;2022-12-07T13:04:53;23.63;;;11.10;;
18738;SDS011;9498;51.862;19.460;2022-12-07T13:10:35;27.13;;;11.67;;
18738;SDS011;9498;51.862;19.460;2022-12-07T13:13:04;29.60;;;11.37;;
18738;SDS011;9498;51.862;19.460;2022-12-07T13:15:33;27.93;;;11.80;;
18738;SDS011;9498;51.862;19.460;2022-12-07T13:18:01;24.97;;;10.87;;
18738;SDS011;9498;51.862;19.460;2022-12-07T13:20:48;29.40;;;12.17;;
18738;SDS011;9498;51.862;19.460;2022-12-07T13:23:21;29.17;;;11.97;;
18738;SDS011;9498;51.862;19.460;2022-12-07T13:25:51;25.73;;;11.63;;
18738;SDS011;9498;51.862;19.460;2022-12-07T13:28:20;28.17;;;12.50;;
18738;SDS011;9498;51.862;19.460;2022-12-07T13:30:56;27.70;;;12.03;;
18738;SDS011;9498;51.862;19.460;2022-12-07T13:33:27;33.75;;;14.43;;
18738;SDS011;9498;51.862;19.460;2022-12-07T13:35:54;28.50;;;12.40;;
18738;SDS011;9498;51.862;19.460;2022-12-07T13:38:27;29.07;;;12.87;;
18738;SDS011;9498;51.862;19.460;2022-12-07T13:41:01;27.97;;;12.60;;
18738;SDS011;9498;51.862;19.460;2022-12-07T13:43:29;33.13;;;14.27;;
18738;SDS011;9498;51.862;19.460;2022-12-07T13:45:56;32.37;;;13.63;;
18738;SDS011;9498;51.862;19.460;2022-12-07T13:48:25;35.13;;;13.80;;
18738;SDS011;9498;51.862;19.460;2022-12-07T13:50:55;29.60;;;12.93;;
18738;SDS011;9498;51.862;19.460;2022-12-07T13:53:22;33.57;;;13.57;;
18738;SDS011;9498;51.862;19.460;2022-12-07T13:55:54;36.50;;;14.97;;
18738;SDS011;9498;51.862;19.460;2022-12-07T13:58:21;38.63;;;14.73;;
18738;SDS011;9498;51.862;19.460;2022-12-07T14:00:49;35.00;;;14.67;;
18738;SDS011;9498;51.862;19.460;2022-12-07T14:03:23;40.38;;;18.83;;
18738;SDS011;9498;51.862;19.460;2022-12-07T14:06:02;44.23;;;16.37;;
18738;SDS011;9498;51.862;19.460;2022-12-07T14:08:30;38.70;;;16.23;;
18738;SDS011;9498;51.862;19.460;2022-12-07T14:10:59;39.90;;;16.87;;
18738;SDS011;9498;51.862;19.460;2022-12-07T14:13:28;44.37;;;17.47;;
18738;SDS011;9498;51.862;19.460;2022-12-07T14:15:59;42.00;;;17.50;;
18738;SDS011;9498;51.862;19.460;2022-12-07T14:18:26;44.17;;;17.87;;
18738;SDS011;9498;51.862;19.460;2022-12-07T14:21:02;41.10;;;16.50;;
18738;SDS011;9498;51.862;19.460;2022-12-07T14:23:30;44.33;;;17.70;;
18738;SDS011;9498;51.862;19.460;2022-12-07T14:26:06;43.93;;;17.20;;
18738;SDS011;9498;51.862;19.460;2022-12-07T14:28:34;44.83;;;16.77;;
18738;SDS011;9498;51.862;19.460;2022-12-07T14:31:02;44.37;;;19.17;;
18738;SDS011;9498;51.862;19.460;2022-12-07T14:33:30;39.73;;;17.07;;
18738;SDS011;9498;51.862;19.460;2022-12-07T14:35:57;39.07;;;15.83;;
18738;SDS011;9498;51.862;19.460;2022-12-07T14:38:24;35.40;;;15.47;;
18738;SDS011;9498;51.862;19.460;2022-12-07T14:40:52;35.03;;;16.27;;
18738;SDS011;9498;51.862;19.460;2022-12-07T14:43:41;38.27;;;16.30;;
18738;SDS011;9498;51.862;19.460;2022-12-07T14:46:08;43.20;;;17.37;;
18738;SDS011;9498;51.862;19.460;2022-12-07T14:48:36;39.73;;;15.90;;
18738;SDS011;9498;51.862;19.460;2022-12-07T14:51:03;38.90;;;15.73;;
18738;SDS011;9498;51.862;19.460;2022-12-07T14:53:34;40.80;;;16.53;;
18738;SDS011;9498;51.862;19.460;2022-12-07T14:56:02;34.67;;;16.10;;